KAPN/APN METAR and TAF weather

Enter ICAO airport designator
Station Type Date Time Source
KAPN METAR 2019/04/21 21:54 UTC NOAA

KAPN 212154Z AUTO 10012KT 10SM CLR 12/M05 A3005 RMK AO2 SLP181 T01221050


Station Type Date Time Source
KAPN Decoded METAR 2019/04/21 21:54 UTC NOAA

ALPENA COUNTY REGIONAL AIRPORT, MI, United States (KAPN) 45-05N 083-34W 210M
Apr 21, 2019 - 05:54 PM EDT / 2019.04.21 2154 UTC
Wind: from the E (100 degrees) at 14 MPH (12 KT):0
Visibility: 10 mile(s):0
Sky conditions: clear
Temperature: 54.0 F (12.2 C)
Dew Point: 23.0 F (-5.0 C)
Relative Humidity: 29%
Pressure (altimeter): 30.05 in. Hg (1017 hPa)
ob: KAPN 212154Z AUTO 10012KT 10SM CLR 12/M05 A3005 RMK AO2 SLP181 T01221050
cycle: 22

Station Type Date Time Source
KAPN TAF 2019/04/21 18:33 UTC NOAA

TAF KAPN 211730Z 2118/2218 VRB04KT P6SM OVC090
FM211900 08005KT P6SM BKN120
FM212100 11006KT P6SM BKN100
FM220200 14005KT P6SM BKN120
FM221500 15007KT P6SM SCT150

Example: see airport list